Strona główna
METAR-TAF:

METAR-TAF

Lotnisko :

Waukegan Regional Airport

Waukegan, Illinois, Stany Zjednoczone

Szerokość geograficzna: 42-25N, Długość geograficzna: 087-52W, wysokość: 222 m

Aktualna obserwacja pogody

Raport powstał 1 godzina i 8 minut temu, godzina 06:55 UTC
Wiatr 8 kt od północny zachód
Temperatura -7°C
Wilgotność 67%
Ciśnienie 1031 hPa
Widzialność: 16.1 km
Zachmurzenie całkowite na wysokości 3400 ft

METAR: KUGN 200655Z AUTO 32008KT 10SM OVC034 M07/M12 A3046 RMK AO2 SLP337 T10671117 $

czas: 02:03 (08:03 UTC)


TAF: brakujący

Obserwacja i prognoza pogody dla ponad 4000 lotnisk (raport METAR i TAF).

Dostępne stacje oznaczono żółtymi i czerwonymi punktami na mapie.

Najedź kursorem aby zobaczyć nazwę stacji.

Kliknij aby zobaczyć obserwacje i prognozy pogody.

Aby zmienić mapę: kliknij na zielony przycisk z czarnym krzyżykiem, aby powiększyć; na zielony przycisk z myślnikiem, aby pomniejszyć; na zielone strzałki, aby przejść do map sąsiednich.


METAR-TAF: